DAUK

Details ICAO DAUK (TGR)
Name SIDI MAHDI
Region Algeria
Timezone Africa/Algiers (UTC+1.0)
Plans Departing 4
Arriving 2
Stats Elevation 279 ft / 85 m (AMSL)
Location 33.073333° 6.089583°
Runways 1
Magnetic Variation 1.489° E
Sunrise 2017-12-17 06:33:58 UTC / 2017-12-17 07:33:58 Local
Sunset 2017-12-17 16:32:17 UTC / 2017-12-17 17:32:17 Local
Advertisement - Login to hide

Runways

ID Width Length Bearing (true) Bearing (mag) Surface Threshold Offset Overrun Length
01 148 ft / 45 m 9,838 ft / 2,999 m 8.44° 6.95° Asphalt 0 ft / 0 m 1,450 ft / 442 m
19 148 ft / 45 m 9,838 ft / 2,999 m 188.44° 186.95° Asphalt 0 ft / 0 m 1,510 ft / 460 m

Map

Weather


0- 5 10 15 20 25 30 35+ Temperature / ° C

Clouds and Precipitation
Forecast for 2017-12-17 06:00 UTC. Updated an hour ago

Ground ~20,000 ft ~40,000 ft Winds

METAR

DAUK 170400Z 00000KT 9999 SCT040 09/04 Q1019

TAF

Not found

Frequencies

Tower 119.70 MHz TOUGGOURT TWR
Warning: Do not use this data for real-world aviation or navigation. No guarantee of current accuracy is given.